Time;durP1;ratioP1;P1;durP2;ratioP2;P2;SDS_P1;SDS_P2;PMS_P1;PMS_P2;Temp;Humidity;BMP_temperature;BMP_pressure;BME280_temperature;BME280_humidity;BME280_pressure;Samples;Min_cycle;Max_cycle;Signal;HPM_P1;HPM_P2
2022/05/01 00:00:10;;;;;;;2.05;1.45;;;;;;;;;;4978345;28;20074;-49
2022/05/01 00:02:37;;;;;;;3.13;1.38;;;;;;;;;;4981952;28;20065;-46
2022/05/01 00:05:03;;;;;;;3.67;1.65;;;;;;;;;;4979246;28;20050;-48
2022/05/01 00:07:36;;;;;;;3.15;1.40;;;;;;;;;;4978757;28;20141;-49
2022/05/01 00:10:03;;;;;;;3.25;1.45;;;;;;;;;;4979125;28;20133;-51
2022/05/01 00:12:29;;;;;;;3.03;1.42;;;;;;;;;;4976801;28;20082;-49
2022/05/01 00:15:03;;;;;;;2.83;1.30;;;;;;;;;;4977947;28;20121;-48
2022/05/01 00:17:30;;;;;;;;;;;;;;;;;;4978511;28;20050;-49
2022/05/01 00:19:56;;;;;;;1.58;1.40;;;;;;;;;;4978469;28;20020;-49
2022/05/01 00:22:30;;;;;;;1.42;1.25;;;;;;;;;;4996342;28;20046;-51
2022/05/01 00:24:56;;;;;;;2.83;1.20;;;;;;;;;;4994429;28;20117;-48
2022/05/01 00:27:23;;;;;;;3.13;1.40;;;;;;;;;;4998121;28;20564;-49
2022/05/01 00:29:56;;;;;;;2.72;1.33;;;;;;;;;;4996254;28;20117;-48
2022/05/01 00:32:23;;;;;;;2.50;1.65;;;;;;;;;;5001088;28;20643;-48
2022/05/01 00:37:41;;;;;;;2.65;1.50;;;;;;;;;;4995478;28;20129;-50
2022/05/01 00:40:08;;;;;;;6.57;1.48;;;;;;;;;;4996160;28;20592;-50
2022/05/01 00:42:34;;;;;;;3.03;1.33;;;;;;;;;;4997381;28;20137;-47
2022/05/01 00:45:07;;;;;;;1.77;0.98;;;;;;;;;;4995511;28;20089;-48
2022/05/01 00:47:34;;;;;;;2.45;1.30;;;;;;;;;;4995636;28;20094;-48
2022/05/01 00:50:00;;;;;;;2.25;1.15;;;;;;;;;;4998245;28;20153;-48
2022/05/01 00:52:33;;;;;;;2.15;1.35;;;;;;;;;;4999005;28;20153;-49
2022/05/01 00:55:00;;;;;;;1.48;1.20;;;;;;;;;;4994883;28;20132;-52
2022/05/01 00:57:26;;;;;;;3.90;1.58;;;;;;;;;;4961830;28;20129;-52
2022/05/01 00:59:59;;;;;;;3.30;1.40;;;;;;;;;;4958238;28;20047;-50
2022/05/01 01:02:25;;;;;;;3.47;1.60;;;;;;;;;;4958248;28;20107;-49
2022/05/01 01:04:52;;;;;;;1.58;1.38;;;;;;;;;;4959904;28;20051;-49
2022/05/01 01:07:25;;;;;;;2.90;1.63;;;;;;;;;;4957818;28;20137;-48
2022/05/01 01:09:52;;;;;;;2.25;1.50;;;;;;;;;;4959247;28;20459;-49
2022/05/01 01:15:13;;;;;;;3.55;1.30;;;;;;;;;;4958144;28;20078;-49
2022/05/01 01:17:41;;;;;;;3.33;1.65;;;;;;;;;;4961608;28;20060;-48
2022/05/01 01:20:15;;;;;;;;;;;;;;;;;;4957972;28;20215;-48
2022/05/01 01:22:49;;;;;;;1.52;1.40;;;;;;;;;;4958672;28;20423;-48
2022/05/01 01:25:18;;;;;;;1.60;1.15;;;;;;;;;;4957271;28;20133;-48
2022/05/01 01:27:44;;;;;;;3.00;1.67;;;;;;;;;;4955840;28;20138;-48
2022/05/01 01:33:02;;;;;;;1.95;1.33;;;;;;;;;;4958442;28;20137;-47
2022/05/01 01:35:37;;;;;;;2.17;1.50;;;;;;;;;;4961908;28;20502;-47
2022/05/01 01:38:04;;;;;;;3.40;1.50;;;;;;;;;;4959667;28;20142;-49
2022/05/01 01:40:57;;;;;;;2.40;1.30;;;;;;;;;;4965675;28;20134;-50
2022/05/01 01:43:31;;;;;;;;;;;;;;;;;;4960296;28;20377;-49
2022/05/01 01:45:57;;;;;;;3.72;1.48;;;;;;;;;;4963583;28;19961;-50
2022/05/01 01:48:24;;;;;;;1.85;1.55;;;;;;;;;;4961919;28;20494;-48
2022/05/01 01:51:02;;;;;;;3.47;1.60;;;;;;;;;;4959436;28;20082;-48
2022/05/01 01:53:32;;;;;;;3.25;1.77;;;;;;;;;;4963280;28;20090;-49
2022/05/01 01:56:12;;;;;;;2.28;1.45;;;;;;;;;;4968569;28;20480;-51
2022/05/01 01:58:45;;;;;;;2.25;1.45;;;;;;;;;;4983227;28;20089;-48
2022/05/01 02:01:18;;;;;;;4.93;1.40;;;;;;;;;;4980044;28;20149;-48
2022/05/01 02:03:45;;;;;;;5.55;1.67;;;;;;;;;;4983634;28;20054;-48
2022/05/01 02:06:11;;;;;;;3.20;1.40;;;;;;;;;;4978608;28;20521;-49
2022/05/01 02:08:47;;;;;;;2.50;1.60;;;;;;;;;;4979799;28;20056;-48
2022/05/01 02:11:13;;;;;;;2.80;1.45;;;;;;;;;;4980286;28;20133;-50
2022/05/01 02:13:40;;;;;;;4.40;1.48;;;;;;;;;;4980349;28;20066;-49
2022/05/01 02:16:13;;;;;;;2.67;1.70;;;;;;;;;;4982189;28;20078;-49
2022/05/01 02:18:40;;;;;;;1.95;1.55;;;;;;;;;;4978589;28;20500;-48
2022/05/01 02:23:58;;;;;;;1.95;1.60;;;;;;;;;;4981676;28;20085;-52
2022/05/01 02:26:25;;;;;;;2.55;1.55;;;;;;;;;;4981630;28;20140;-47
2022/05/01 02:28:51;;;;;;;3.17;2.00;;;;;;;;;;4979882;28;20137;-46
2022/05/01 02:31:25;;;;;;;5.28;1.67;;;;;;;;;;4982683;28;20123;-47
2022/05/01 02:33:51;;;;;;;2.65;1.67;;;;;;;;;;4979731;28;20417;-50
2022/05/01 02:36:18;;;;;;;3.20;1.75;;;;;;;;;;4979106;28;20134;-46
2022/05/01 02:38:52;;;;;;;6.10;1.90;;;;;;;;;;4983412;28;20160;-47
2022/05/01 02:41:18;;;;;;;2.80;1.55;;;;;;;;;;4980755;28;20089;-47
2022/05/01 02:43:45;;;;;;;4.83;1.50;;;;;;;;;;4978841;28;20120;-47
2022/05/01 02:46:18;;;;;;;5.40;1.70;;;;;;;;;;4979154;28;20479;-47
2022/05/01 02:48:45;;;;;;;3.88;1.40;;;;;;;;;;4979243;28;20050;-49
2022/05/01 02:51:12;;;;;;;3.42;1.38;;;;;;;;;;4981291;28;20126;-51
2022/05/01 02:53:45;;;;;;;2.47;1.70;;;;;;;;;;4978490;28;20038;-49
2022/05/01 02:56:19;;;;;;;4.18;1.83;;;;;;;;;;4975031;28;20138;-49
2022/05/01 02:59:00;;;;;;;3.47;1.83;;;;;;;;;;4958768;28;20552;-48
2022/05/01 03:01:29;;;;;;;2.95;1.35;;;;;;;;;;4961336;28;20081;-47
2022/05/01 03:04:03;;;;;;;2.45;1.55;;;;;;;;;;4960044;28;20188;-47
2022/05/01 03:06:29;;;;;;;3.72;1.52;;;;;;;;;;4959567;28;20122;-48
2022/05/01 03:08:56;;;;;;;2.60;1.40;;;;;;;;;;4960428;28;20500;-50
2022/05/01 03:11:29;;;;;;;5.38;1.40;;;;;;;;;;4961430;28;20970;-47
2022/05/01 03:13:56;;;;;;;1.95;1.60;;;;;;;;;;4960174;28;20158;-46
2022/05/01 03:16:22;;;;;;;3.88;1.60;;;;;;;;;;4960844;28;20134;-49
2022/05/01 03:24:32;;;;;;;4.45;1.60;;;;;;;;;;4959767;28;20135;-48
2022/05/01 03:26:59;;;;;;;2.17;1.83;;;;;;;;;;4957064;28;20111;-48
2022/05/01 03:29:25;;;;;;;2.67;1.80;;;;;;;;;;4963114;28;20137;-49
2022/05/01 03:31:59;;;;;;;2.28;1.80;;;;;;;;;;4958651;28;20569;-47
2022/05/01 03:34:26;;;;;;;4.47;1.70;;;;;;;;;;4959807;28;20062;-49
2022/05/01 03:36:53;;;;;;;3.85;2.20;;;;;;;;;;4961822;28;20096;-47
2022/05/01 03:39:26;;;;;;;3.25;1.95;;;;;;;;;;4963107;28;20466;-47
2022/05/01 03:41:53;;;;;;;5.65;1.95;;;;;;;;;;4961101;28;20163;-50
2022/05/01 03:44:19;;;;;;;4.18;2.40;;;;;;;;;;4959570;28;20121;-47
2022/05/01 03:46:52;;;;;;;5.60;2.67;;;;;;;;;;4961280;28;20146;-50
2022/05/01 03:49:19;;;;;;;5.45;2.10;;;;;;;;;;4960804;28;20086;-50
2022/05/01 03:51:46;;;;;;;7.05;2.63;;;;;;;;;;4960003;28;20126;-48
2022/05/01 03:54:20;;;;;;;4.63;2.40;;;;;;;;;;4959153;28;20073;-50
2022/05/01 03:56:53;;;;;;;2.70;1.98;;;;;;;;;;4966149;28;20581;-46
2022/05/01 03:59:33;;;;;;;6.00;2.20;;;;;;;;;;4979785;28;20125;-47
2022/05/01 04:01:59;;;;;;;3.28;1.90;;;;;;;;;;4972298;28;20140;-48
2022/05/01 04:04:26;;;;;;;3.47;1.80;;;;;;;;;;4977259;28;20051;-47
2022/05/01 04:06:59;;;;;;;4.47;2.22;;;;;;;;;;4980784;28;20106;-47
2022/05/01 04:09:28;;;;;;;3.67;2.08;;;;;;;;;;4978196;28;20051;-48
2022/05/01 04:11:55;;;;;;;2.38;2.00;;;;;;;;;;4978866;28;20084;-47
2022/05/01 04:14:28;;;;;;;4.75;2.28;;;;;;;;;;4977319;28;20085;-49
2022/05/01 04:16:56;;;;;;;4.72;1.77;;;;;;;;;;4978160;28;20486;-48
2022/05/01 04:19:23;;;;;;;5.05;2.10;;;;;;;;;;4981581;28;20046;-47
2022/05/01 04:21:56;;;;;;;5.03;2.10;;;;;;;;;;4979306;28;20133;-51
2022/05/01 04:24:23;;;;;;;13.65;2.72;;;;;;;;;;4977783;28;20141;-48
2022/05/01 04:26:50;;;;;;;7.57;2.05;;;;;;;;;;4977819;28;20162;-48
2022/05/01 04:29:43;;;;;;;3.28;2.28;;;;;;;;;;4974127;28;20062;-48
2022/05/01 04:32:10;;;;;;;4.43;2.17;;;;;;;;;;4980764;28;20051;-52
2022/05/01 04:34:43;;;;;;;3.08;2.35;;;;;;;;;;4976329;28;20490;-49
2022/05/01 04:37:17;;;;;;;4.75;2.28;;;;;;;;;;4975881;28;20121;-46
2022/05/01 04:40:00;;;;;;;5.90;2.42;;;;;;;;;;4980106;28;20078;-48
2022/05/01 04:42:27;;;;;;;5.60;2.30;;;;;;;;;;4980537;28;20054;-47
2022/05/01 04:45:00;;;;;;;6.93;2.97;;;;;;;;;;4976905;28;20082;-48
2022/05/01 04:47:27;;;;;;;3.33;2.35;;;;;;;;;;4980846;28;20125;-46
2022/05/01 04:49:53;;;;;;;6.32;2.20;;;;;;;;;;4977385;28;20057;-47
2022/05/01 04:52:26;;;;;;;6.38;2.13;;;;;;;;;;4976429;28;20082;-48
2022/05/01 04:54:53;;;;;;;4.03;2.15;;;;;;;;;;4977377;28;20129;-47
2022/05/01 04:57:33;;;;;;;5.15;2.30;;;;;;;;;;4979895;28;20196;-48
2022/05/01 05:00:07;;;;;;;6.90;2.47;;;;;;;;;;4976327;28;20169;-48
2022/05/01 05:02:41;;;;;;;5.10;3.13;;;;;;;;;;4966343;28;20149;-47
2022/05/01 05:05:15;;;;;;;11.60;2.83;;;;;;;;;;4980981;28;20054;-48
2022/05/01 05:07:41;;;;;;;4.40;2.67;;;;;;;;;;4983966;28;20149;-47
2022/05/01 05:10:08;;;;;;;5.78;2.90;;;;;;;;;;4980127;28;20869;-49
2022/05/01 05:12:42;;;;;;;5.03;3.13;;;;;;;;;;4980662;28;20133;-50
2022/05/01 05:15:10;;;;;;;6.00;3.30;;;;;;;;;;4979775;28;20101;-47
2022/05/01 05:17:37;;;;;;;7.93;3.00;;;;;;;;;;4980976;28;20138;-49
2022/05/01 05:20:11;;;;;;;5.32;3.22;;;;;;;;;;4980722;28;20042;-47
2022/05/01 05:22:41;;;;;;;8.07;3.40;;;;;;;;;;4981298;28;20141;-48
2022/05/01 05:25:11;;;;;;;9.57;3.55;;;;;;;;;;4980639;28;20074;-50
2022/05/01 05:27:45;;;;;;;8.45;3.42;;;;;;;;;;4981750;28;20137;-47
2022/05/01 05:30:11;;;;;;;8.55;2.78;;;;;;;;;;4985126;28;20133;-50
2022/05/01 05:32:38;;;;;;;7.87;3.20;;;;;;;;;;4979665;28;20121;-50
2022/05/01 05:35:11;;;;;;;5.65;3.10;;;;;;;;;;4980687;28;20077;-47
2022/05/01 05:37:38;;;;;;;5.40;3.13;;;;;;;;;;4978955;28;20626;-46
2022/05/01 05:40:04;;;;;;;9.30;3.17;;;;;;;;;;4977796;28;20500;-47
2022/05/01 05:42:37;;;;;;;6.53;3.28;;;;;;;;;;4978182;28;20057;-48
2022/05/01 05:45:04;;;;;;;5.28;2.97;;;;;;;;;;4983540;28;20042;-46
2022/05/01 05:47:30;;;;;;;12.63;2.67;;;;;;;;;;4982034;28;20129;-47
2022/05/01 05:50:04;;;;;;;6.30;3.30;;;;;;;;;;4984514;28;20158;-49
2022/05/01 05:52:31;;;;;;;8.35;3.13;;;;;;;;;;4979648;28;20046;-49
2022/05/01 05:54:58;;;;;;;;;;;;;;;;;;4981911;28;20101;-47
2022/05/01 05:57:45;;;;;;;4.55;2.80;;;;;;;;;;4984088;28;20044;-48
2022/05/01 06:00:18;;;;;;;6.47;3.20;;;;;;;;;;4981741;28;20137;-48
2022/05/01 06:02:51;;;;;;;4.82;3.20;;;;;;;;;;4980030;28;20134;-50
2022/05/01 06:05:18;;;;;;;6.63;3.10;;;;;;;;;;4978244;28;20108;-48
2022/05/01 06:07:44;;;;;;;6.07;2.88;;;;;;;;;;4981326;28;20146;-47
2022/05/01 06:10:17;;;;;;;8.52;2.60;;;;;;;;;;4982309;28;20145;-47
2022/05/01 06:12:44;;;;;;;5.45;2.60;;;;;;;;;;4981310;28;20494;-50
2022/05/01 06:15:17;;;;;;;3.88;2.50;;;;;;;;;;4980241;28;20058;-48
2022/05/01 06:17:51;;;;;;;8.20;2.97;;;;;;;;;;4980951;28;20137;-49
2022/05/01 06:20:18;;;;;;;5.45;2.92;;;;;;;;;;4979576;28;20133;-47
2022/05/01 06:22:44;;;;;;;5.32;2.40;;;;;;;;;;4979452;28;20133;-49
2022/05/01 06:25:17;;;;;;;3.25;2.35;;;;;;;;;;4980629;28;20581;-50
2022/05/01 06:27:44;;;;;;;7.07;2.72;;;;;;;;;;4979634;28;20129;-48
2022/05/01 06:30:11;;;;;;;5.53;2.58;;;;;;;;;;4976505;28;20141;-48
2022/05/01 06:32:44;;;;;;;5.63;2.45;;;;;;;;;;4981021;28;20130;-47
2022/05/01 06:35:11;;;;;;;4.78;2.50;;;;;;;;;;4979752;28;20149;-49
2022/05/01 06:37:38;;;;;;;4.15;2.40;;;;;;;;;;4981991;28;20484;-51
2022/05/01 06:40:11;;;;;;;4.38;2.22;;;;;;;;;;4978349;28;20066;-49
2022/05/01 06:42:38;;;;;;;2.88;1.90;;;;;;;;;;4981843;28;20098;-50
2022/05/01 06:45:04;;;;;;;5.45;1.80;;;;;;;;;;4973837;28;20147;-49
2022/05/01 06:47:37;;;;;;;4.55;1.80;;;;;;;;;;4982669;28;20169;-48
2022/05/01 06:50:04;;;;;;;6.45;1.80;;;;;;;;;;4980599;28;20093;-46
2022/05/01 06:52:30;;;;;;;3.08;1.70;;;;;;;;;;4979680;28;20137;-48
2022/05/01 06:55:03;;;;;;;2.75;1.60;;;;;;;;;;4977588;28;20133;-48
2022/05/01 06:57:37;;;;;;;4.65;1.60;;;;;;;;;;4980862;28;20470;-48
2022/05/01 07:00:11;;;;;;;2.70;1.50;;;;;;;;;;4979783;28;20066;-49
2022/05/01 07:02:47;;;;;;;2.33;1.42;;;;;;;;;;4975554;28;20051;-51
2022/05/01 07:05:21;;;;;;;3.38;1.48;;;;;;;;;;4977462;28;20058;-48
2022/05/01 07:07:51;;;;;;;2.08;1.40;;;;;;;;;;4980438;28;20167;-48
2022/05/01 07:10:18;;;;;;;3.88;1.73;;;;;;;;;;4981637;28;20133;-49
2022/05/01 07:12:51;;;;;;;5.70;1.50;;;;;;;;;;4979906;28;20070;-49
2022/05/01 07:15:18;;;;;;;1.80;1.20;;;;;;;;;;4980434;28;20145;-53
2022/05/01 07:17:44;;;;;;;3.55;1.70;;;;;;;;;;4978379;28;20053;-49
2022/05/01 07:20:17;;;;;;;2.55;1.33;;;;;;;;;;4981509;28;20153;-48
2022/05/01 07:22:44;;;;;;;3.58;1.63;;;;;;;;;;4976787;28;20814;-47
2022/05/01 07:25:11;;;;;;;5.50;1.42;;;;;;;;;;4977893;28;20049;-47
2022/05/01 07:27:44;;;;;;;1.73;1.20;;;;;;;;;;4976709;28;20104;-49
2022/05/01 07:30:11;;;;;;;3.38;1.10;;;;;;;;;;4977541;28;20050;-48
2022/05/01 07:32:37;;;;;;;1.77;1.25;;;;;;;;;;4977790;28;20046;-48
2022/05/01 07:35:10;;;;;;;4.85;1.30;;;;;;;;;;4979275;28;20133;-48
2022/05/01 07:37:37;;;;;;;1.58;1.27;;;;;;;;;;4974760;28;20145;-49
2022/05/01 07:40:03;;;;;;;2.28;1.52;;;;;;;;;;4976792;28;20080;-48
2022/05/01 07:42:37;;;;;;;5.95;1.90;;;;;;;;;;4954984;28;20091;-51
2022/05/01 07:45:04;;;;;;;4.43;1.20;;;;;;;;;;4948868;28;20050;-50
2022/05/01 07:47:30;;;;;;;2.38;1.30;;;;;;;;;;4965561;28;20054;-46
2022/05/01 07:50:04;;;;;;;3.65;1.63;;;;;;;;;;4946749;28;20166;-48
2022/05/01 07:52:30;;;;;;;4.97;1.53;;;;;;;;;;4956144;28;20137;-46
2022/05/01 07:54:57;;;;;;;1.98;1.38;;;;;;;;;;4977560;28;20312;-48
2022/05/01 07:57:37;;;;;;;6.57;1.65;;;;;;;;;;4979699;28;20108;-46
2022/05/01 08:00:11;;;;;;;4.75;1.70;;;;;;;;;;4979050;28;20146;-47
2022/05/01 08:05:30;;;;;;;2.97;1.58;;;;;;;;;;4976358;28;20595;-50
2022/05/01 08:08:03;;;;;;;2.45;1.58;;;;;;;;;;4978506;28;20086;-51
2022/05/01 08:10:30;;;;;;;5.20;1.77;;;;;;;;;;4973035;28;20137;-46
2022/05/01 08:12:56;;;;;;;3.28;1.38;;;;;;;;;;4979110;28;20137;-46
2022/05/01 08:15:29;;;;;;;4.18;1.45;;;;;;;;;;4976243;28;20477;-49
2022/05/01 08:21:05;;;;;;;3.03;1.50;;;;;;;;;;4977598;28;20043;-49
2022/05/01 08:21:05;;;;;;;3.00;1.80;;;;;;;;;;4978365;28;20341;-48
2022/05/01 08:23:32;;;;;;;3.85;1.65;;;;;;;;;;4977954;28;20050;-49
2022/05/01 08:26:06;;;;;;;3.28;1.83;;;;;;;;;;4976359;28;20132;-47
2022/05/01 08:28:33;;;;;;;3.80;1.73;;;;;;;;;;4977778;28;20101;-46
2022/05/01 08:31:00;;;;;;;5.72;2.00;;;;;;;;;;4973170;28;20050;-52
2022/05/01 08:33:34;;;;;;;3.42;1.42;;;;;;;;;;4973522;28;20054;-49
2022/05/01 08:36:04;;;;;;;2.95;1.60;;;;;;;;;;4977047;28;20090;-47
2022/05/01 08:38:31;;;;;;;2.92;1.50;;;;;;;;;;4974010;28;20074;-47
2022/05/01 08:41:05;;;;;;;5.55;1.50;;;;;;;;;;4974670;28;20416;-48
2022/05/01 08:43:32;;;;;;;14.40;1.48;;;;;;;;;;4980562;28;20129;-49
2022/05/01 08:46:02;;;;;;;6.78;1.83;;;;;;;;;;4975295;28;20055;-49
2022/05/01 08:48:36;;;;;;;3.83;1.40;;;;;;;;;;4977231;28;20054;-49
2022/05/01 08:51:04;;;;;;;5.88;1.88;;;;;;;;;;4974795;28;20141;-47
2022/05/01 08:53:31;;;;;;;5.30;1.40;;;;;;;;;;4977094;28;20070;-48
2022/05/01 08:56:05;;;;;;;3.00;1.20;;;;;;;;;;4973704;28;20131;-48
2022/05/01 08:58:40;;;;;;;3.42;1.50;;;;;;;;;;4976647;28;20137;-49
2022/05/01 09:01:14;;;;;;;2.35;1.60;;;;;;;;;;4977882;28;20060;-48
2022/05/01 09:03:43;;;;;;;3.90;1.35;;;;;;;;;;4974743;28;20050;-49
2022/05/01 09:06:10;;;;;;;1.83;1.35;;;;;;;;;;4977677;28;20066;-46
2022/05/01 09:08:46;;;;;;;1.85;1.30;;;;;;;;;;4975088;28;20137;-47
2022/05/01 09:14:06;;;;;;;4.07;1.50;;;;;;;;;;4976976;28;20074;-48
2022/05/01 09:16:36;;;;;;;2.65;1.50;;;;;;;;;;4973538;28;20133;-50
2022/05/01 09:19:03;;;;;;;4.38;1.52;;;;;;;;;;4980976;28;20521;-51
2022/05/01 09:21:50;;;;;;;2.38;1.17;;;;;;;;;;4975680;28;20060;-47
2022/05/01 09:24:26;;;;;;;2.17;1.40;;;;;;;;;;4978912;28;20046;-48
2022/05/01 09:27:00;;;;;;;3.50;1.30;;;;;;;;;;4974898;28;20874;-49
2022/05/01 09:29:32;;;;;;;4.03;1.20;;;;;;;;;;4977288;28;20155;-50
2022/05/01 09:32:00;;;;;;;4.70;1.15;;;;;;;;;;4978060;28;20477;-52
2022/05/01 09:34:37;;;;;;;2.22;1.40;;;;;;;;;;4977475;28;20533;-52
2022/05/01 09:37:18;;;;;;;4.25;1.13;;;;;;;;;;4978583;28;20042;-52
2022/05/01 09:39:51;;;;;;;3.40;1.25;;;;;;;;;;4974741;28;20134;-49
2022/05/01 09:42:19;;;;;;;3.10;1.10;;;;;;;;;;4974849;28;20070;-48
2022/05/01 09:45:05;;;;;;;2.03;1.10;;;;;;;;;;4975341;28;20148;-51
2022/05/01 09:47:43;;;;;;;2.40;1.15;;;;;;;;;;4980108;28;20061;-52
2022/05/01 09:50:10;;;;;;;2.47;0.75;;;;;;;;;;4977904;28;20157;-53
2022/05/01 09:52:53;;;;;;;1.77;1.30;;;;;;;;;;4981136;28;20165;-48
2022/05/01 09:55:27;;;;;;;2.78;1.02;;;;;;;;;;4981076;28;20082;-49
2022/05/01 09:58:06;;;;;;;6.78;1.50;;;;;;;;;;4982557;28;20077;-47
2022/05/01 10:00:41;;;;;;;1.88;1.30;;;;;;;;;;4978554;28;20140;-48
2022/05/01 10:03:28;;;;;;;4.25;1.38;;;;;;;;;;4980852;28;20054;-47
2022/05/01 10:06:02;;;;;;;2.38;1.17;;;;;;;;;;4981097;28;20065;-52
2022/05/01 10:08:29;;;;;;;2.45;1.10;;;;;;;;;;4981967;28;20086;-50
2022/05/01 10:10:59;;;;;;;1.33;1.10;;;;;;;;;;4976038;28;20129;-51
2022/05/01 10:13:33;;;;;;;6.78;1.08;;;;;;;;;;4983486;28;20129;-52
2022/05/01 10:16:04;;;;;;;4.82;1.20;;;;;;;;;;4978028;28;20054;-54
2022/05/01 10:18:31;;;;;;;2.55;1.08;;;;;;;;;;4978390;28;20568;-51
2022/05/01 10:21:24;;;;;;;2.40;0.75;;;;;;;;;;5002576;28;20045;-53
2022/05/01 10:23:51;;;;;;;1.05;0.70;;;;;;;;;;4971025;28;20096;-52
2022/05/01 10:26:26;;;;;;;1.75;1.15;;;;;;;;;;4999481;28;20085;-50
2022/05/01 10:29:24;;;;;;;6.43;0.90;;;;;;;;;;4996832;28;20046;-49
2022/05/01 10:32:21;;;;;;;3.00;1.20;;;;;;;;;;4998874;28;20560;-49
2022/05/01 10:35:17;;;;;;;2.28;1.15;;;;;;;;;;5001032;28;20068;-50
2022/05/01 10:38:06;;;;;;;1.77;0.90;;;;;;;;;;5000072;28;20136;-50
2022/05/01 10:40:33;;;;;;;1.55;1.10;;;;;;;;;;4997838;28;20508;-50
2022/05/01 10:43:25;;;;;;;2.88;0.95;;;;;;;;;;4999108;28;20069;-50
2022/05/01 10:45:53;;;;;;;2.47;0.88;;;;;;;;;;4998005;28;20074;-52
2022/05/01 10:48:30;;;;;;;3.25;1.35;;;;;;;;;;5000428;28;20197;-47
2022/05/01 10:51:16;;;;;;;3.72;0.82;;;;;;;;;;4998907;28;20517;-53
2022/05/01 10:54:08;;;;;;;2.53;0.80;;;;;;;;;;4995520;28;20068;-51
2022/05/01 10:56:42;;;;;;;4.22;0.85;;;;;;;;;;4998162;28;20429;-49
2022/05/01 10:59:43;;;;;;;2.55;1.08;;;;;;;;;;4963279;28;20051;-50
2022/05/01 11:02:22;;;;;;;1.38;1.00;;;;;;;;;;4959629;28;20051;-50
2022/05/01 11:04:56;;;;;;;1.90;1.20;;;;;;;;;;4963368;28;20050;-50
2022/05/01 11:07:24;;;;;;;1.08;0.70;;;;;;;;;;4961391;28;20152;-50
2022/05/01 11:09:50;;;;;;;1.88;0.90;;;;;;;;;;4961279;28;20593;-54
2022/05/01 11:12:24;;;;;;;1.63;0.90;;;;;;;;;;4962182;28;20133;-51
2022/05/01 11:15:01;;;;;;;1.30;0.90;;;;;;;;;;4960335;28;20051;-52
2022/05/01 11:17:36;;;;;;;1.58;1.13;;;;;;;;;;4961266;28;20077;-52
2022/05/01 11:20:04;;;;;;;1.42;0.80;;;;;;;;;;4958486;28;20058;-48
2022/05/01 11:22:31;;;;;;;1.15;0.73;;;;;;;;;;4960460;28;20079;-49
2022/05/01 11:25:10;;;;;;;1.00;0.73;;;;;;;;;;4960783;28;20137;-55
2022/05/01 11:27:49;;;;;;;0.70;0.70;;;;;;;;;;4960623;28;20433;-55
2022/05/01 11:30:31;;;;;;;4.05;1.17;;;;;;;;;;4958105;28;20059;-53
2022/05/01 11:33:00;;;;;;;2.28;1.10;;;;;;;;;;4962953;28;20071;-49
2022/05/01 11:35:53;;;;;;;4.47;1.00;;;;;;;;;;4957641;28;20577;-54
2022/05/01 11:38:20;;;;;;;1.25;0.85;;;;;;;;;;4960460;28;20138;-54
2022/05/01 11:40:55;;;;;;;1.02;0.73;;;;;;;;;;4958217;28;20043;-53
2022/05/01 11:43:21;;;;;;;1.10;0.77;;;;;;;;;;4960870;28;20486;-52
2022/05/01 11:45:48;;;;;;;1.65;1.00;;;;;;;;;;4960939;28;20149;-50
2022/05/01 11:48:21;;;;;;;1.52;0.80;;;;;;;;;;4962213;28;20074;-52
2022/05/01 11:50:50;;;;;;;2.45;0.73;;;;;;;;;;4958631;28;20132;-51
2022/05/01 11:53:27;;;;;;;2.85;0.88;;;;;;;;;;4957374;28;20049;-52
2022/05/01 12:04:37;;;;;;;2.72;1.10;;;;;;;;;;4952453;28;20055;-52
2022/05/01 12:07:12;;;;;;;0.88;0.82;;;;;;;;;;4947649;28;20137;-53
2022/05/01 12:09:39;;;;;;;1.05;0.80;;;;;;;;;;4954334;28;20110;-52
2022/05/01 12:12:07;;;;;;;2.05;0.75;;;;;;;;;;4955366;28;20051;-51
2022/05/01 12:14:40;;;;;;;0.70;0.60;;;;;;;;;;4953468;28;20583;-51
2022/05/01 12:17:07;;;;;;;1.65;0.85;;;;;;;;;;4956711;28;20169;-53
2022/05/01 12:19:35;;;;;;;1.73;0.90;;;;;;;;;;4957156;28;20134;-50
2022/05/01 12:22:10;;;;;;;1.33;0.90;;;;;;;;;;4956205;28;20470;-53
2022/05/01 12:24:37;;;;;;;1.08;0.77;;;;;;;;;;4954745;28;20409;-52
2022/05/01 12:27:04;;;;;;;1.08;0.70;;;;;;;;;;4954729;28;20156;-53
2022/05/01 12:29:38;;;;;;;3.42;0.77;;;;;;;;;;4956492;28;20142;-52
2022/05/01 12:32:04;;;;;;;;;;;;;;;;;;4958466;28;20086;-53
2022/05/01 12:34:31;;;;;;;1.10;1.00;;;;;;;;;;4957719;28;20390;-50
2022/05/01 12:37:09;;;;;;;0.95;0.57;;;;;;;;;;4955674;28;20395;-54
2022/05/01 12:39:36;;;;;;;2.55;0.70;;;;;;;;;;4957630;28;20070;-53
2022/05/01 12:45:10;;;;;;;0.70;0.70;;;;;;;;;;4955921;28;20055;-52
2022/05/01 12:47:40;;;;;;;1.60;0.77;;;;;;;;;;4957702;28;20051;-50
2022/05/01 12:50:20;;;;;;;3.37;0.90;;;;;;;;;;4956889;28;20134;-53
2022/05/01 12:52:47;;;;;;;1.55;0.80;;;;;;;;;;4957869;28;20074;-52
2022/05/01 12:55:41;;;;;;;1.30;0.88;;;;;;;;;;4957817;28;20053;-54
2022/05/01 12:58:23;;;;;;;2.17;1.13;;;;;;;;;;4963473;28;20161;-55
2022/05/01 13:00:57;;;;;;;1.23;0.60;;;;;;;;;;4978182;28;20129;-52
2022/05/01 13:03:24;;;;;;;1.40;0.67;;;;;;;;;;4974529;28;20150;-54
2022/05/01 13:05:57;;;;;;;2.75;1.10;;;;;;;;;;4977070;28;20047;-52
2022/05/01 13:08:32;;;;;;;0.82;0.52;;;;;;;;;;4998306;28;20082;-55
2022/05/01 13:11:11;;;;;;;1.55;0.70;;;;;;;;;;4996997;28;20062;-52
2022/05/01 13:13:47;;;;;;;3.17;0.90;;;;;;;;;;4997183;28;20062;-52
2022/05/01 13:16:15;;;;;;;1.67;0.77;;;;;;;;;;4995440;28;20073;-55
2022/05/01 13:18:42;;;;;;;1.73;0.80;;;;;;;;;;4995990;28;20520;-54
2022/05/01 13:21:17;;;;;;;2.25;0.65;;;;;;;;;;4996372;28;20572;-55
2022/05/01 13:23:44;;;;;;;4.93;1.02;;;;;;;;;;4996743;28;20684;-52
2022/05/01 13:26:10;;;;;;;1.88;0.90;;;;;;;;;;4998014;28;20133;-54
2022/05/01 13:28:45;;;;;;;2.20;0.88;;;;;;;;;;4999967;28;20073;-53
2022/05/01 13:31:14;;;;;;;1.38;0.90;;;;;;;;;;4998902;28;20100;-55
2022/05/01 13:33:40;;;;;;;2.75;0.80;;;;;;;;;;4998364;28;20046;-53
2022/05/01 13:36:14;;;;;;;1.67;0.90;;;;;;;;;;4996886;28;20137;-53
2022/05/01 13:38:41;;;;;;;4.15;0.70;;;;;;;;;;4998992;28;20086;-54
2022/05/01 13:46:44;;;;;;;1.65;0.82;;;;;;;;;;5004582;28;20177;-52
2022/05/01 13:49:18;;;;;;;1.20;0.80;;;;;;;;;;5001487;28;20050;-52
2022/05/01 13:51:44;;;;;;;3.50;0.98;;;;;;;;;;4997503;28;20140;-50
2022/05/01 13:54:10;;;;;;;1.92;1.00;;;;;;;;;;4999637;28;20197;-53
2022/05/01 13:56:47;;;;;;;0.77;0.73;;;;;;;;;;4995723;28;20145;-51
2022/05/01 13:59:27;;;;;;;6.28;0.82;;;;;;;;;;4983891;28;20137;-53
2022/05/01 14:02:00;;;;;;;0.70;0.70;;;;;;;;;;4983098;28;20522;-52
2022/05/01 14:04:27;;;;;;;0.98;0.70;;;;;;;;;;4975594;28;20108;-53
2022/05/01 14:06:54;;;;;;;1.83;0.70;;;;;;;;;;4962134;28;20054;-49
2022/05/01 14:09:27;;;;;;;0.88;0.60;;;;;;;;;;4982630;28;20066;-53
2022/05/01 14:11:55;;;;;;;2.78;0.80;;;;;;;;;;4977261;28;20054;-50
2022/05/01 14:14:22;;;;;;;3.83;0.98;;;;;;;;;;4977811;28;20573;-53
2022/05/01 14:16:54;;;;;;;6.82;1.00;;;;;;;;;;4977286;28;20122;-51
2022/05/01 14:19:24;;;;;;;1.53;1.00;;;;;;;;;;4997112;28;20105;-52
2022/05/01 14:21:50;;;;;;;4.70;1.23;;;;;;;;;;4999520;28;20136;-53
2022/05/01 14:24:45;;;;;;;2.78;0.80;;;;;;;;;;5000431;28;20501;-51
2022/05/01 14:27:11;;;;;;;3.40;1.10;;;;;;;;;;4998544;28;20129;-53
2022/05/01 14:29:45;;;;;;;1.20;0.77;;;;;;;;;;4995451;28;20516;-52
2022/05/01 14:32:15;;;;;;;1.95;0.93;;;;;;;;;;4997345;28;20069;-52
2022/05/01 14:34:47;;;;;;;2.08;0.90;;;;;;;;;;4997886;28;20802;-52
2022/05/01 14:37:24;;;;;;;0.88;0.77;;;;;;;;;;4984781;28;20432;-53
2022/05/01 14:40:00;;;;;;;2.60;0.68;;;;;;;;;;4975196;23;20151;-49
2022/05/01 14:42:35;;;;;;;2.38;0.70;;;;;;;;;;4953757;28;20129;-53
2022/05/01 14:45:01;;;;;;;;;;;;;;;;;;4958259;28;20086;-51
2022/05/01 14:47:28;;;;;;;1.25;0.80;;;;;;;;;;4947652;28;19981;-48
2022/05/01 14:50:02;;;;;;;0.68;0.60;;;;;;;;;;4961471;28;20125;-52
2022/05/01 14:52:30;;;;;;;1.20;1.10;;;;;;;;;;4963490;28;20134;-47
2022/05/01 14:54:57;;;;;;;2.53;1.33;;;;;;;;;;4961072;28;21703;-51
2022/05/01 14:57:32;;;;;;;3.50;1.10;;;;;;;;;;4956021;28;20146;-50
2022/05/01 15:08:30;;;;;;;1.63;0.85;;;;;;;;;;4958640;28;20465;-49
2022/05/01 15:10:57;;;;;;;1.40;0.90;;;;;;;;;;4961291;28;20043;-51
2022/05/01 15:13:24;;;;;;;1.02;0.80;;;;;;;;;;4961616;28;20140;-48
2022/05/01 15:16:03;;;;;;;0.85;0.73;;;;;;;;;;4953624;28;20153;-49
2022/05/01 15:18:56;;;;;;;1.10;0.88;;;;;;;;;;4962611;28;20051;-46
2022/05/01 15:24:22;;;;;;;2.53;0.90;;;;;;;;;;4965053;28;20129;-45
2022/05/01 15:27:02;;;;;;;1.83;0.90;;;;;;;;;;4962063;28;20141;-46
2022/05/01 15:29:35;;;;;;;2.95;0.90;;;;;;;;;;4958932;28;20491;-46
2022/05/01 15:32:11;;;;;;;5.60;0.80;;;;;;;;;;4951531;28;20136;-54
2022/05/01 15:34:40;;;;;;;1.90;0.90;;;;;;;;;;4955876;28;20059;-47
2022/05/01 15:37:07;;;;;;;1.25;1.08;;;;;;;;;;4956387;28;20759;-46
2022/05/01 15:39:52;;;;;;;1.33;0.90;;;;;;;;;;4970642;28;20102;-45
2022/05/01 15:42:18;;;;;;;0.93;0.75;;;;;;;;;;4972005;28;20078;-48
2022/05/01 15:44:52;;;;;;;3.97;1.08;;;;;;;;;;4976189;28;21705;-46
2022/05/01 15:47:26;;;;;;;1.55;0.80;;;;;;;;;;4975730;28;20086;-47
2022/05/01 15:55:38;;;;;;;1.33;0.90;;;;;;;;;;4976945;28;20129;-45
2022/05/01 15:58:05;;;;;;;1.67;0.98;;;;;;;;;;4976604;28;20129;-47
2022/05/01 16:00:32;;;;;;;1.38;0.70;;;;;;;;;;4976616;28;20129;-46
2022/05/01 16:03:06;;;;;;;1.60;0.70;;;;;;;;;;4972990;28;20074;-46
2022/05/01 16:05:33;;;;;;;2.63;1.20;;;;;;;;;;4976911;28;20133;-47
2022/05/01 16:08:10;;;;;;;2.17;1.30;;;;;;;;;;4974238;28;20133;-47